Wisconsin Rapids, WI

6:23 AM CST on March 03, 2015 (GMT -0600)
Alexander Field South Wood County | Change Station
CLOSE
Current Station
Airport
Location: Wisconsin Rapids,
Elevation: 1020 ft
Nearby Weather Stations
Active Advisory: Winter Weather Advisory

Elev 1020 ft 44.36 °N, 89.84 °W | Updated 8 minutes ago

Light Snow
Light Snow
22 °F
Feels Like 12 °F
N
9
Wind Variable Wind from SSE

Today
High -- | Low -- °F
--% Chance of Precip.
Yesterday
High -- | Low -- °F
Precip. -- in
6:33 AM 5:49 PM
Waxing Gibbous, 96% visible
Pressure 29.83 in
Visibility 2.5 miles
Clouds Mostly Cloudy 2900 ft
Overcast 6500 ft
Windchill 12 °F
Dew Point 14 °F
Humidity 72%
Rainfall 0.00 in
Snow Depth Not available.
UV 0 out of 12
Pollen .40 out of 12
Air Quality Not available.
Flu Activity Not available.
SPECI KISW 031215Z AUTO 16008KT 2 1/2SM -SN BKN029 OVC065 M06/M10 A2983 RMK AO2 SNB09 P0000 T10561100

More Conditions Fewer Conditions

Pressure 29.83 in
Visibility 2.5 miles
Clouds Mostly Cloudy 2900 ft
Overcast 6500 ft
Windchill 12 °F
Dew Point 14 °F
Humidity 72%
Rainfall 0.00 in
Snow Depth Not available.
UV 0 out of 12
Pollen .40 out of 12
Air Quality Not available.
Flu Activity Not available.
SPECI KISW 031215Z AUTO 16008KT 2 1/2SM -SN BKN029 OVC065 M06/M10 A2983 RMK AO2 SNB09 P0000 T10561100

More Conditions Fewer Conditions

10-Day Weather Forecast

Almanac

Astronomy

Mar. 03, 2015 Rise Set
Actual Time
Civil Twilight
Nautical Twilight
Astronomical Twilight
Moon
Length of Visible Light
Length of Day
Tomorrow will be .
, % of the Moon is Illuminated

Today's Extremes

State Highs State Lows

Community

WunderPhotos

Upload Photos

1,802,095 photos uploaded!

WunderBlogs® & News

Nearby

Air Quality

  Air Quality AQ Index Pollutant
Not available.

Snow Depth

Station Depth Elevation

Earthquake Activity

City Distance Mag. Time & Date
Minimum magnitude displayed is 2.5.

Coastal Water Temperatures

Place Temperature

Nearby Weather Stations

Winter Weather Advisory
Statement as of 4:05 AM CST on March 03, 2015

... Winter Weather Advisory remains in effect until 6 PM CST this
evening...

* snow will develop this morning and will become moderate at times.
The snow is expected to taper off to flurries this afternoon.

* A total snow accumulation of 3 to 4 inches is expected.

* Travel conditions will become hazardous due to snow covered
roads and will impact the morning commute.

Precautionary/preparedness actions...

A Winter Weather Advisory for snow means that periods of snow
will cause some travel difficulties. Be prepared for snow covered
roads and limited visibilities... and use caution while driving.
The latest Wisconsin Road conditions can be obtained by calling
511.